Time;durP1;ratioP1;P1;durP2;ratioP2;P2;SDS_P1;SDS_P2;PMS_P1;PMS_P2;Temp;Humidity;BMP_temperature;BMP_pressure;BME280_temperature;BME280_humidity;BME280_pressure;Samples;Min_cycle;Max_cycle;Signal;HPM_P1;HPM_P2
2022/11/24 00:02:17;;;;;;;;;;;23.80;71.90;;;;;;5058755;28;20498;-71
2022/11/24 00:04:44;;;;;;;;;;;23.80;70.70;;;;;;5059762;28;19913;-73
2022/11/24 00:07:10;;;;;;;;;;;23.80;70.20;;;;;;5059498;28;19920;-73
2022/11/24 00:09:37;;;;;;;;;;;23.80;70.30;;;;;;5055725;28;19912;-72
2022/11/24 00:12:03;;;;;;;;;;;23.90;70.90;;;;;;5059171;28;19908;-72
2022/11/24 00:14:30;;;;;;;;;;;23.90;70.50;;;;;;5057941;28;19912;-73
2022/11/24 00:16:57;;;;;;;;;;;24.00;69.40;;;;;;5060223;28;19909;-71
2022/11/24 00:19:23;;;;;;;;;;;24.10;69.90;;;;;;5056055;28;19963;-73
2022/11/24 00:21:50;;;;;;;;;;;24.20;69.60;;;;;;5058650;28;19912;-71
2022/11/24 00:24:17;;;;;;;;;;;24.40;70.30;;;;;;5059679;28;19920;-71
2022/11/24 00:26:43;;;;;;;;;;;24.50;69.70;;;;;;5058967;28;19916;-71
2022/11/24 00:29:10;;;;;;;;;;;24.50;69.90;;;;;;5059304;28;20818;-69
2022/11/24 00:31:38;;;;;;;;;;;24.60;68.50;;;;;;5057083;28;19980;-73
2022/11/24 00:34:14;;;;;;;;;;;24.80;69.30;;;;;;5060016;28;19919;-73
2022/11/24 00:36:41;;;;;;;;;;;24.80;68.10;;;;;;5056956;28;19973;-72
2022/11/24 00:39:11;;;;;;;;;;;24.90;68.90;;;;;;5059571;28;19908;-72
2022/11/24 00:41:38;;;;;;;;;;;25.00;69.00;;;;;;5057547;28;19935;-71
2022/11/24 00:44:05;;;;;;;;;;;25.00;67.70;;;;;;5059943;28;19924;-71
2022/11/24 00:46:31;;;;;;;;;;;25.00;68.20;;;;;;5056879;28;20027;-72
2022/11/24 00:49:01;;;;;;;;;;;25.10;68.10;;;;;;5059560;28;20388;-72
2022/11/24 00:51:31;;;;;;;;;;;25.20;67.30;;;;;;5057272;28;19915;-72
2022/11/24 00:53:58;;;;;;;;;;;25.20;67.90;;;;;;5059071;28;19966;-72
2022/11/24 00:56:25;;;;;;;;;;;25.50;68.10;;;;;;5058906;28;19909;-72
2022/11/24 00:58:52;;;;;;;;;;;25.80;68.30;;;;;;5058405;28;20349;-71
2022/11/24 01:01:20;;;;;;;;;;;26.10;67.30;;;;;;5058961;28;19909;-72
2022/11/24 01:03:47;;;;;;;;;;;26.30;68.50;;;;;;5057428;28;19913;-71
2022/11/24 01:06:16;;;;;;;;;;;26.30;66.40;;;;;;5059239;28;19921;-72
2022/11/24 01:08:42;;;;;;;;;;;26.20;65.80;;;;;;5056849;28;20844;-73
2022/11/24 01:11:14;;;;;;;;;;;26.40;66.00;;;;;;5059609;28;19921;-73
2022/11/24 01:13:41;;;;;;;;;;;26.70;65.40;;;;;;5057308;28;19916;-72
2022/11/24 01:16:14;;;;;;;;;;;27.00;65.30;;;;;;5058685;28;19940;-72
2022/11/24 01:18:41;;;;;;;;;;;27.10;64.90;;;;;;5057187;28;19909;-72
2022/11/24 01:21:08;;;;;;;;;;;27.20;65.40;;;;;;5058442;28;19966;-72
2022/11/24 01:23:35;;;;;;;;;;;27.30;66.20;;;;;;5055996;28;20320;-72
2022/11/24 01:26:03;;;;;;;;;;;27.50;66.50;;;;;;5058919;28;19988;-71
2022/11/24 01:28:30;;;;;;;;;;;27.60;65.40;;;;;;5056848;28;20013;-74
2022/11/24 01:31:00;;;;;;;;;;;27.40;66.50;;;;;;5058333;28;19990;-73
2022/11/24 01:33:27;;;;;;;;;;;27.40;71.20;;;;;;5058440;28;19965;-73
2022/11/24 01:35:54;;;;;;;;;;;27.00;72.20;;;;;;5056087;28;19912;-71
2022/11/24 01:38:20;;;;;;;;;;;26.90;72.80;;;;;;5057838;28;19913;-72
2022/11/24 01:40:47;;;;;;;;;;;26.90;74.20;;;;;;5056059;28;20353;-71
2022/11/24 01:43:15;;;;;;;;;;;27.00;73.10;;;;;;5056962;28;20384;-72
2022/11/24 01:45:43;;;;;;;;;;;26.90;72.00;;;;;;5055004;28;19912;-71
2022/11/24 01:48:29;;;;;;;;;;;26.70;72.90;;;;;;5057168;28;20344;-72
2022/11/24 01:51:03;;;;;;;;;;;27.00;72.20;;;;;;5056015;28;19939;-71
2022/11/24 01:53:30;;;;;;;;;;;27.00;71.50;;;;;;5052537;28;19917;-72
2022/11/24 01:55:57;;;;;;;;;;;26.90;71.20;;;;;;5056716;28;19912;-69
2022/11/24 01:58:25;;;;;;;;;;;26.90;72.10;;;;;;5057570;28;19908;-70
2022/11/24 02:00:52;;;;;;;;;;;27.30;70.80;;;;;;5055784;28;19909;-72
2022/11/24 02:03:23;;;;;;;;;;;27.60;69.20;;;;;;5057353;28;20122;-71
2022/11/24 02:05:59;;;;;;;;;;;27.80;68.70;;;;;;5054882;28;19928;-72
2022/11/24 02:08:29;;;;;;;;;;;27.70;69.10;;;;;;5057327;28;20284;-71
2022/11/24 02:10:56;;;;;;;;;;;27.70;69.50;;;;;;5055526;28;19916;-73
2022/11/24 02:13:22;;;;;;;;;;;27.60;67.90;;;;;;5057113;28;19909;-71
2022/11/24 02:15:49;;;;;;;;;;;27.80;67.60;;;;;;5055877;28;19947;-73
2022/11/24 02:18:16;;;;;;;;;;;28.00;67.30;;;;;;5054666;28;19917;-72
2022/11/24 02:20:42;;;;;;;;;;;28.10;67.80;;;;;;5054917;28;20656;-73
2022/11/24 02:23:23;;;;;;;;;;;28.30;67.60;;;;;;5057193;28;19908;-72
2022/11/24 02:25:58;;;;;;;;;;;28.40;68.70;;;;;;5055213;28;19920;-72
2022/11/24 02:28:26;;;;;;;;;;;28.50;68.40;;;;;;5056887;28;19921;-72
2022/11/24 02:30:53;;;;;;;;;;;28.60;66.30;;;;;;5055246;28;19935;-71
2022/11/24 02:33:21;;;;;;;;;;;28.60;66.80;;;;;;5056924;28;20379;-72
2022/11/24 02:35:47;;;;;;;;;;;28.60;67.20;;;;;;5055572;28;19909;-72
2022/11/24 02:38:14;;;;;;;;;;;28.90;69.10;;;;;;5058545;28;19962;-72
2022/11/24 02:40:42;;;;;;;;;;;29.30;66.40;;;;;;5057807;28;19999;-73
2022/11/24 02:43:11;;;;;;;;;;;29.50;67.50;;;;;;5058369;28;19909;-72
2022/11/24 02:45:38;;;;;;;;;;;29.60;67.00;;;;;;5058330;28;20007;-71
2022/11/24 02:48:05;;;;;;;;;;;29.40;65.90;;;;;;5055668;28;19943;-72
2022/11/24 02:50:32;;;;;;;;;;;29.70;67.00;;;;;;5047150;28;20637;-70
2022/11/24 02:52:58;;;;;;;;;;;30.40;65.30;;;;;;5051641;28;19912;-73
2022/11/24 02:55:25;;;;;;;;;;;31.40;64.10;;;;;;5053962;28;19909;-70
2022/11/24 02:57:51;;;;;;;;;;;31.50;63.10;;;;;;5056978;28;20178;-70
2022/11/24 03:00:18;;;;;;;;;;;31.10;62.60;;;;;;5057904;28;19999;-71
2022/11/24 03:02:45;;;;;;;;;;;31.60;63.10;;;;;;5061551;28;19973;-72
2022/11/24 03:05:12;;;;;;;;;;;32.50;61.70;;;;;;5061407;28;20054;-73
2022/11/24 03:07:38;;;;;;;;;;;33.60;59.70;;;;;;5059715;28;19928;-72
2022/11/24 03:10:05;;;;;;;;;;;33.50;59.40;;;;;;5060080;28;19908;-73
2022/11/24 03:12:32;;;;;;;;;;;33.60;58.80;;;;;;5062638;28;20378;-71
2022/11/24 03:14:59;;;;;;;;;;;34.70;57.60;;;;;;5060008;28;19909;-69
2022/11/24 03:17:25;;;;;;;;;;;35.40;55.70;;;;;;5059006;28;20277;-70
2022/11/24 03:19:52;;;;;;;;;;;34.50;56.80;;;;;;5059525;28;20194;-70
2022/11/24 03:22:18;;;;;;;;;;;35.30;55.00;;;;;;5059395;28;19952;-72
2022/11/24 03:24:45;;;;;;;;;;;35.80;55.00;;;;;;5060347;28;20023;-70
2022/11/24 03:27:12;;;;;;;;;;;36.50;53.90;;;;;;5060488;28;19920;-70
2022/11/24 03:29:38;;;;;;;;;;;36.90;53.60;;;;;;5058461;28;19908;-72
2022/11/24 03:32:05;;;;;;;;;;;36.90;53.20;;;;;;5058982;28;19908;-70
2022/11/24 03:34:32;;;;;;;;;;;36.40;54.70;;;;;;5061028;28;19955;-71
2022/11/24 03:36:58;;;;;;;;;;;37.20;52.40;;;;;;5059006;28;19915;-71
2022/11/24 03:39:25;;;;;;;;;;;36.30;53.30;;;;;;5060613;28;19913;-71
2022/11/24 03:41:52;;;;;;;;;;;36.70;52.20;;;;;;5057064;28;20884;-71
2022/11/24 03:44:18;;;;;;;;;;;35.90;52.30;;;;;;5061603;28;19908;-72
2022/11/24 03:46:45;;;;;;;;;;;35.80;52.10;;;;;;5058045;28;20395;-71
2022/11/24 03:49:11;;;;;;;;;;;36.30;51.80;;;;;;5060404;28;20294;-72
2022/11/24 03:51:38;;;;;;;;;;;36.20;52.30;;;;;;5058901;28;19908;-71
2022/11/24 03:54:05;;;;;;;;;;;37.20;50.70;;;;;;5059765;28;19947;-70
2022/11/24 03:56:32;;;;;;;;;;;37.90;50.80;;;;;;5060488;28;20047;-72
2022/11/24 03:58:58;;;;;;;;;;;38.60;51.00;;;;;;5063039;28;19927;-73
2022/11/24 04:01:25;;;;;;;;;;;39.10;49.10;;;;;;5060219;28;19983;-71
2022/11/24 04:03:52;;;;;;;;;;;39.30;48.90;;;;;;5058104;28;19908;-70
2022/11/24 04:06:18;;;;;;;;;;;38.50;49.60;;;;;;5060255;28;19921;-72
2022/11/24 04:08:45;;;;;;;;;;;36.50;51.60;;;;;;5057932;28;19916;-73
2022/11/24 04:12:42;;;;;;;;;;;37.00;50.50;;;;;;5060043;28;19948;-72
2022/11/24 04:13:58;;;;;;;;;;;35.90;51.90;;;;;;5057927;28;19915;-72
2022/11/24 04:16:24;;;;;;;;;;;37.20;50.60;;;;;;5060465;28;20403;-72
2022/11/24 04:18:52;;;;;;;;;;;37.60;49.90;;;;;;5058521;28;19956;-72
2022/11/24 04:21:19;;;;;;;;;;;37.70;49.90;;;;;;5056421;28;19908;-73
2022/11/24 04:23:46;;;;;;;;;;;37.30;50.30;;;;;;5056731;28;19908;-71
2022/11/24 04:26:12;;;;;;;;;;;35.70;51.60;;;;;;5059013;28;19926;-72
2022/11/24 04:28:39;;;;;;;;;;;33.90;54.10;;;;;;5060153;28;19959;-72
2022/11/24 04:31:06;;;;;;;;;;;34.80;54.70;;;;;;5090284;28;19912;-72
2022/11/24 04:33:32;;;;;;;;;;;36.10;53.80;;;;;;5059336;28;20049;-71
2022/11/24 04:35:59;;;;;;;;;;;36.50;53.00;;;;;;5057027;28;19916;-71
2022/11/24 04:38:25;;;;;;;;;;;37.60;51.00;;;;;;5060366;28;19913;-72
2022/11/24 04:40:52;;;;;;;;;;;38.50;50.60;;;;;;5057283;28;19912;-73
2022/11/24 04:43:20;;;;;;;;;;;38.80;50.40;;;;;;5058235;28;19943;-72
2022/11/24 04:45:47;;;;;;;;;;;39.50;49.50;;;;;;5056809;28;19952;-73
2022/11/24 04:48:13;;;;;;;;;;;39.60;48.70;;;;;;5057945;28;20672;-73
2022/11/24 04:50:40;;;;;;;;;;;39.10;49.10;;;;;;5058642;28;19969;-70
2022/11/24 04:53:07;;;;;;;;;;;38.70;49.00;;;;;;5055847;28;20677;-72
2022/11/24 04:55:33;;;;;;;;;;;37.70;50.60;;;;;;5058320;28;19913;-73
2022/11/24 04:58:00;;;;;;;;;;;36.20;52.00;;;;;;5057369;28;20011;-72
2022/11/24 05:00:28;;;;;;;;;;;34.00;54.90;;;;;;5057934;28;19916;-72
2022/11/24 05:02:55;;;;;;;;;;;34.20;55.50;;;;;;5058067;28;20016;-72
2022/11/24 05:05:21;;;;;;;;;;;35.10;53.50;;;;;;5056856;28;19927;-73
2022/11/24 05:07:48;;;;;;;;;;;34.00;55.70;;;;;;5058392;28;19963;-72
2022/11/24 05:13:00;;;;;;;;;;;35.20;53.60;;;;;;5055906;28;20020;-71
2022/11/24 05:15:27;;;;;;;;;;;35.50;54.40;;;;;;5051391;28;19923;-70
2022/11/24 05:17:53;;;;;;;;;;;36.10;54.20;;;;;;5052830;28;19925;-71
2022/11/24 05:20:20;;;;;;;;;;;36.20;54.30;;;;;;5052539;28;19920;-69
2022/11/24 05:22:47;;;;;;;;;;;36.70;54.40;;;;;;5050557;28;19917;-70
2022/11/24 05:25:14;;;;;;;;;;;36.10;54.70;;;;;;5055125;28;19920;-71
2022/11/24 05:27:40;;;;;;;;;;;33.70;57.60;;;;;;5058143;28;20019;-71
2022/11/24 05:30:07;;;;;;;;;;;33.10;58.70;;;;;;5056857;28;19908;-70
2022/11/24 05:32:34;;;;;;;;;;;32.40;59.70;;;;;;5055904;28;19909;-70
2022/11/24 05:35:03;;;;;;;;;;;31.60;60.50;;;;;;5057266;28;20404;-71
2022/11/24 05:37:30;;;;;;;;;;;31.50;62.70;;;;;;5056475;28;19909;-69
2022/11/24 05:39:56;;;;;;;;;;;32.90;59.90;;;;;;5056998;28;19994;-70
2022/11/24 05:42:41;;;;;;;;;;;32.60;60.10;;;;;;5056350;28;19994;-72
2022/11/24 05:45:12;;;;;;;;;;;33.00;61.00;;;;;;5057536;28;19909;-71
2022/11/24 05:47:39;;;;;;;;;;;33.10;61.10;;;;;;5058135;28;19920;-69
2022/11/24 05:50:07;;;;;;;;;;;32.60;62.50;;;;;;5057175;28;19931;-69
2022/11/24 05:52:34;;;;;;;;;;;32.20;62.10;;;;;;5056132;28;19927;-70
2022/11/24 05:55:01;;;;;;;;;;;31.10;65.20;;;;;;5056663;28;19935;-70
2022/11/24 05:57:27;;;;;;;;;;;30.50;66.20;;;;;;5055466;28;20384;-70
2022/11/24 05:59:54;;;;;;;;;;;30.70;64.30;;;;;;5054826;28;19919;-73
2022/11/24 06:02:20;;;;;;;;;;;29.80;67.10;;;;;;5052411;28;19967;-70
2022/11/24 06:04:47;;;;;;;;;;;28.60;69.90;;;;;;5057295;28;19990;-71
2022/11/24 06:07:14;;;;;;;;;;;28.30;70.20;;;;;;5055866;28;19920;-72
2022/11/24 06:09:41;;;;;;;;;;;27.80;70.50;;;;;;5057942;28;20022;-72
2022/11/24 06:12:09;;;;;;;;;;;27.40;72.30;;;;;;5057569;28;19909;-72
2022/11/24 06:14:36;;;;;;;;;;;27.00;72.90;;;;;;5056009;28;19913;-72
2022/11/24 06:17:03;;;;;;;;;;;26.90;74.60;;;;;;5057357;28;20276;-71
2022/11/24 06:19:30;;;;;;;;;;;26.50;76.10;;;;;;5055958;28;20010;-71
2022/11/24 06:21:57;;;;;;;;;;;26.30;76.40;;;;;;5058701;28;20003;-73
2022/11/24 06:24:23;;;;;;;;;;;26.20;76.00;;;;;;5052801;28;19913;-70
2022/11/24 06:26:50;;;;;;;;;;;26.20;76.30;;;;;;5058114;28;20261;-71
2022/11/24 06:29:17;;;;;;;;;;;26.00;78.10;;;;;;5056490;28;19919;-72
2022/11/24 06:31:43;;;;;;;;;;;25.80;77.80;;;;;;5055780;28;19952;-72
2022/11/24 06:34:11;;;;;;;;;;;25.70;78.70;;;;;;5054561;28;19948;-68
2022/11/24 06:36:38;;;;;;;;;;;25.30;79.30;;;;;;5060650;28;19909;-70
2022/11/24 06:39:05;;;;;;;;;;;25.40;80.10;;;;;;5062194;28;20328;-72
2022/11/24 06:41:32;;;;;;;;;;;25.60;80.50;;;;;;5060850;28;19908;-69
2022/11/24 06:44:01;;;;;;;;;;;26.00;78.50;;;;;;5062504;28;19909;-71
2022/11/24 06:46:28;;;;;;;;;;;26.40;77.90;;;;;;5059429;28;19932;-70
2022/11/24 06:48:54;;;;;;;;;;;26.30;77.80;;;;;;5062192;28;20349;-69
2022/11/24 06:51:21;;;;;;;;;;;26.50;78.10;;;;;;5059824;28;19909;-71
2022/11/24 06:53:48;;;;;;;;;;;26.80;77.60;;;;;;5060879;28;19917;-73
2022/11/24 06:56:17;;;;;;;;;;;26.50;77.90;;;;;;5061610;28;19916;-71
2022/11/24 06:58:45;;;;;;;;;;;26.20;78.20;;;;;;5060185;28;19916;-69
2022/11/24 07:01:19;;;;;;;;;;;25.90;80.00;;;;;;5060401;28;20249;-73
2022/11/24 07:03:49;;;;;;;;;;;26.10;79.90;;;;;;5060293;28;19950;-70
2022/11/24 07:06:16;;;;;;;;;;;25.90;78.90;;;;;;5060444;28;20270;-71
2022/11/24 07:08:43;;;;;;;;;;;25.80;80.10;;;;;;5058946;28;20520;-73
2022/11/24 07:11:14;;;;;;;;;;;25.70;80.50;;;;;;5061339;28;19944;-72
2022/11/24 07:13:41;;;;;;;;;;;25.20;80.90;;;;;;5056249;28;20007;-72
2022/11/24 07:16:14;;;;;;;;;;;24.90;81.30;;;;;;5062041;28;19912;-71
2022/11/24 07:18:42;;;;;;;;;;;25.10;80.70;;;;;;5059668;28;20301;-71
2022/11/24 07:21:08;;;;;;;;;;;25.00;81.20;;;;;;5060705;28;20011;-71
2022/11/24 07:23:35;;;;;;;;;;;25.00;81.40;;;;;;5058409;28;20005;-71
2022/11/24 07:26:05;;;;;;;;;;;24.90;81.60;;;;;;5061998;28;19944;-70
2022/11/24 07:28:32;;;;;;;;;;;24.80;82.80;;;;;;5058069;28;19924;-73
2022/11/24 07:31:03;;;;;;;;;;;24.40;83.40;;;;;;5061203;28;19913;-74
2022/11/24 07:33:30;;;;;;;;;;;24.30;83.10;;;;;;5058323;28;19991;-72
2022/11/24 07:35:59;;;;;;;;;;;24.20;84.20;;;;;;5061001;28;19909;-71
2022/11/24 07:38:25;;;;;;;;;;;24.20;83.60;;;;;;5060423;28;20316;-72
2022/11/24 07:40:52;;;;;;;;;;;24.10;84.20;;;;;;5059367;28;19913;-69
2022/11/24 07:43:19;;;;;;;;;;;24.00;85.00;;;;;;5060116;28;20345;-72
2022/11/24 07:45:51;;;;;;;;;;;23.90;85.70;;;;;;5058416;28;20369;-70
2022/11/24 07:48:17;;;;;;;;;;;23.70;87.20;;;;;;5059755;28;20305;-71
2022/11/24 07:50:44;;;;;;;;;;;23.30;88.00;;;;;;5058308;28;19909;-70
2022/11/24 07:53:11;;;;;;;;;;;22.90;89.90;;;;;;5060449;28;19913;-70
2022/11/24 07:55:37;;;;;;;;;;;22.80;90.50;;;;;;5057753;28;20395;-72
2022/11/24 07:58:04;;;;;;;;;;;22.60;91.10;;;;;;5060501;28;19919;-70
2022/11/24 08:00:31;;;;;;;;;;;22.70;91.30;;;;;;5059272;28;20376;-70
2022/11/24 08:02:58;;;;;;;;;;;22.50;91.40;;;;;;5060216;28;19909;-72
2022/11/24 08:05:24;;;;;;;;;;;22.40;91.80;;;;;;5040249;28;20400;-69
2022/11/24 08:07:51;;;;;;;;;;;22.10;92.80;;;;;;5037971;28;19921;-71
2022/11/24 08:10:17;;;;;;;;;;;22.00;93.10;;;;;;5059881;28;19909;-72
2022/11/24 08:12:44;;;;;;;;;;;21.70;93.90;;;;;;5057815;28;19919;-71
2022/11/24 08:15:11;;;;;;;;;;;21.60;94.60;;;;;;5060417;28;20074;-70
2022/11/24 08:17:37;;;;;;;;;;;21.50;95.10;;;;;;5058849;28;20228;-74
2022/11/24 08:20:04;;;;;;;;;;;21.60;95.60;;;;;;5060250;28;20001;-71
2022/11/24 08:22:31;;;;;;;;;;;21.50;96.10;;;;;;5060142;28;19915;-67
2022/11/24 08:24:58;;;;;;;;;;;21.60;96.60;;;;;;5057871;28;19919;-67
2022/11/24 08:27:24;;;;;;;;;;;21.60;97.20;;;;;;5058242;28;19916;-72
2022/11/24 08:29:51;;;;;;;;;;;21.70;97.00;;;;;;5057428;28;20354;-70
2022/11/24 08:32:18;;;;;;;;;;;21.60;97.40;;;;;;5060380;28;19920;-68
2022/11/24 08:34:44;;;;;;;;;;;21.60;97.90;;;;;;5056538;28;19999;-69
2022/11/24 08:37:11;;;;;;;;;;;21.60;97.90;;;;;;5059696;28;19956;-70
2022/11/24 08:39:37;;;;;;;;;;;21.80;97.80;;;;;;5058020;28;19940;-71
2022/11/24 08:42:04;;;;;;;;;;;21.70;97.90;;;;;;5058456;28;19995;-69
2022/11/24 08:44:31;;;;;;;;;;;21.60;98.50;;;;;;5059721;28;19917;-70
2022/11/24 08:46:57;;;;;;;;;;;21.50;98.30;;;;;;5057132;28;19913;-70
2022/11/24 08:49:24;;;;;;;;;;;21.40;99.10;;;;;;5059796;28;19908;-69
2022/11/24 08:51:51;;;;;;;;;;;21.20;99.50;;;;;;5056891;28;19959;-69
2022/11/24 08:54:17;;;;;;;;;;;21.10;99.90;;;;;;5059730;28;20316;-71
2022/11/24 08:56:44;;;;;;;;;;;21.00;99.90;;;;;;5056882;28;19966;-71
2022/11/24 08:59:12;;;;;;;;;;;21.10;99.90;;;;;;5059193;28;19916;-70
2022/11/24 09:01:39;;;;;;;;;;;21.20;99.90;;;;;;5057964;28;20400;-67
2022/11/24 09:04:05;;;;;;;;;;;21.20;99.90;;;;;;5058064;28;19946;-72
2022/11/24 09:06:32;;;;;;;;;;;21.20;99.90;;;;;;5058317;28;19924;-69
2022/11/24 09:08:59;;;;;;;;;;;21.10;99.90;;;;;;5056659;28;20273;-72
2022/11/24 09:11:26;;;;;;;;;;;21.10;99.90;;;;;;5059359;28;19930;-72
2022/11/24 09:13:53;;;;;;;;;;;21.00;99.90;;;;;;5056624;28;20045;-70
2022/11/24 09:16:27;;;;;;;;;;;21.00;99.90;;;;;;5059200;28;19923;-70
2022/11/24 09:19:04;;;;;;;;;;;21.00;99.90;;;;;;5055314;28;19912;-71
2022/11/24 09:21:32;;;;;;;;;;;20.90;99.90;;;;;;5059193;28;19913;-71
2022/11/24 09:23:59;;;;;;;;;;;21.10;99.90;;;;;;5057272;28;19909;-68
2022/11/24 09:26:27;;;;;;;;;;;21.20;99.90;;;;;;5060477;28;19912;-70
2022/11/24 09:28:54;;;;;;;;;;;21.20;99.90;;;;;;5056679;28;19915;-70
2022/11/24 09:31:25;;;;;;;;;;;21.20;99.90;;;;;;5055532;28;19916;-71
2022/11/24 09:33:52;;;;;;;;;;;21.00;99.90;;;;;;5050078;28;19909;-72
2022/11/24 09:36:19;;;;;;;;;;;20.80;99.90;;;;;;5057533;28;19916;-69
2022/11/24 09:38:46;;;;;;;;;;;20.80;99.90;;;;;;5057832;28;19920;-71
2022/11/24 09:41:12;;;;;;;;;;;20.60;99.90;;;;;;5057228;28;20854;-70
2022/11/24 09:43:50;;;;;;;;;;;20.60;99.90;;;;;;5056208;28;19920;-71
2022/11/24 09:46:16;;;;;;;;;;;20.60;99.90;;;;;;5056147;28;19995;-70
2022/11/24 09:48:45;;;;;;;;;;;20.60;99.90;;;;;;5058609;28;20533;-70
2022/11/24 09:51:13;;;;;;;;;;;20.70;99.90;;;;;;5056801;28;19908;-71
2022/11/24 09:53:45;;;;;;;;;;;20.70;99.90;;;;;;5057872;28;20354;-71
2022/11/24 09:56:12;;;;;;;;;;;20.70;99.90;;;;;;5056301;28;19908;-72
2022/11/24 09:58:52;;;;;;;;;;;20.60;99.90;;;;;;5057678;28;19909;-73
2022/11/24 10:01:21;;;;;;;;;;;20.70;99.90;;;;;;5058373;28;19970;-70
2022/11/24 10:03:51;;;;;;;;;;;20.70;99.90;;;;;;5057219;28;19966;-70
2022/11/24 10:06:33;;;;;;;;;;;20.70;99.90;;;;;;5057302;28;19931;-70
2022/11/24 10:09:18;;;;;;;;;;;20.70;99.90;;;;;;5053750;28;19927;-70
2022/11/24 10:12:01;;;;;;;;;;;20.60;99.90;;;;;;5058004;28;20420;-69
2022/11/24 10:14:28;;;;;;;;;;;20.60;99.90;;;;;;5057887;28;20007;-71
2022/11/24 10:17:03;;;;;;;;;;;20.60;99.90;;;;;;5056830;28;19909;-72
2022/11/24 10:19:45;;;;;;;;;;;20.80;99.90;;;;;;5058291;28;19909;-70
2022/11/24 10:22:27;;;;;;;;;;;20.80;99.90;;;;;;5055496;28;19913;-70
2022/11/24 10:25:01;;;;;;;;;;;20.80;99.90;;;;;;5050208;28;19924;-74
2022/11/24 10:27:34;;;;;;;;;;;20.90;99.90;;;;;;5058057;28;19969;-71
2022/11/24 10:30:01;;;;;;;;;;;20.80;99.90;;;;;;5055132;28;19908;-72
2022/11/24 10:32:34;;;;;;;;;;;20.70;99.90;;;;;;5058174;28;19912;-73
2022/11/24 10:35:19;;;;;;;;;;;20.60;99.90;;;;;;5054633;28;19920;-71
2022/11/24 10:37:51;;;;;;;;;;;20.60;99.90;;;;;;5057577;28;19915;-70
2022/11/24 10:40:53;;;;;;;;;;;20.70;99.90;;;;;;5054591;28;19908;-71
2022/11/24 10:43:19;;;;;;;;;;;20.70;99.90;;;;;;4970851;28;19910;-71
2022/11/24 10:45:46;;;;;;;;;;;20.70;99.90;;;;;;5040717;28;19908;-72
2022/11/24 10:48:18;;;;;;;;;;;20.60;99.90;;;;;;5055250;28;19962;-73
2022/11/24 10:50:44;;;;;;;;;;;20.60;99.90;;;;;;5057857;28;19913;-72
2022/11/24 10:53:17;;;;;;;;;;;20.60;99.90;;;;;;5055207;28;19995;-72
2022/11/24 10:56:04;;;;;;;;;;;20.50;99.90;;;;;;5057730;28;19920;-69
2022/11/24 10:58:32;;;;;;;;;;;20.60;99.90;;;;;;5056839;28;19915;-69
2022/11/24 11:01:00;;;;;;;;;;;20.60;99.90;;;;;;5057318;28;19916;-70
2022/11/24 11:03:33;;;;;;;;;;;20.70;99.90;;;;;;5056109;28;20007;-70
2022/11/24 11:06:08;;;;;;;;;;;20.70;99.90;;;;;;5057406;28;20352;-72
2022/11/24 11:08:35;;;;;;;;;;;20.60;99.90;;;;;;5056875;28;20354;-71
2022/11/24 11:11:11;;;;;;;;;;;20.60;99.90;;;;;;5057649;28;19997;-71
2022/11/24 11:13:37;;;;;;;;;;;20.70;99.90;;;;;;5056969;28;19939;-72
2022/11/24 11:16:18;;;;;;;;;;;20.60;99.90;;;;;;5056507;28;20415;-71
2022/11/24 11:18:48;;;;;;;;;;;20.60;99.90;;;;;;5056568;28;19947;-71
2022/11/24 11:21:26;;;;;;;;;;;20.60;99.90;;;;;;5058519;28;19909;-70
2022/11/24 11:23:53;;;;;;;;;;;20.70;99.90;;;;;;5059980;28;20458;-71
2022/11/24 11:26:30;;;;;;;;;;;20.70;99.90;;;;;;5059524;28;19990;-71
2022/11/24 11:29:02;;;;;;;;;;;20.60;99.90;;;;;;5060740;28;19989;-69
2022/11/24 11:31:30;;;;;;;;;;;20.60;99.90;;;;;;5059385;28;19924;-69
2022/11/24 11:34:01;;;;;;;;;;;20.60;99.90;;;;;;5059992;28;19954;-71
2022/11/24 11:36:29;;;;;;;;;;;20.60;99.90;;;;;;5057738;28;20384;-70
2022/11/24 11:38:56;;;;;;;;;;;20.70;99.90;;;;;;5060187;28;20077;-71
2022/11/24 11:41:29;;;;;;;;;;;20.80;99.90;;;;;;5058728;28;19915;-72
2022/11/24 11:44:00;;;;;;;;;;;20.80;99.90;;;;;;5060253;28;19939;-70
2022/11/24 11:46:29;;;;;;;;;;;20.70;99.90;;;;;;5057735;28;19959;-71
2022/11/24 11:48:56;;;;;;;;;;;20.70;99.90;;;;;;5059855;28;20373;-72
2022/11/24 11:51:38;;;;;;;;;;;20.60;99.90;;;;;;5059359;28;19916;-70
2022/11/24 11:54:10;;;;;;;;;;;20.60;99.90;;;;;;5061269;28;19908;-70
2022/11/24 11:56:57;;;;;;;;;;;20.70;99.90;;;;;;5059605;28;19997;-70
2022/11/24 11:59:42;;;;;;;;;;;20.60;99.90;;;;;;5046918;28;20380;-71
2022/11/24 12:02:17;;;;;;;;;;;20.40;99.90;;;;;;5060610;28;19909;-70
2022/11/24 12:04:59;;;;;;;;;;;20.50;99.90;;;;;;5059867;28;19998;-70
2022/11/24 12:07:37;;;;;;;;;;;20.40;99.90;;;;;;5058971;28;20384;-71
2022/11/24 12:10:12;;;;;;;;;;;20.40;99.90;;;;;;5059760;28;20006;-70
2022/11/24 12:12:57;;;;;;;;;;;20.30;99.90;;;;;;5058041;28;20258;-72
2022/11/24 12:15:31;;;;;;;;;;;20.20;99.90;;;;;;5058865;28;19909;-70
2022/11/24 12:18:07;;;;;;;;;;;20.20;99.90;;;;;;5059804;28;19974;-71
2022/11/24 12:20:36;;;;;;;;;;;20.10;99.90;;;;;;5058812;28;19909;-71
2022/11/24 12:23:10;;;;;;;;;;;20.20;99.90;;;;;;5059793;28;19935;-70
2022/11/24 12:25:40;;;;;;;;;;;20.10;99.90;;;;;;5059492;28;20003;-70
2022/11/24 12:28:07;;;;;;;;;;;20.20;99.90;;;;;;5059684;28;20361;-70
2022/11/24 12:30:51;;;;;;;;;;;20.30;99.90;;;;;;5058984;28;19919;-70
2022/11/24 12:33:36;;;;;;;;;;;20.30;99.90;;;;;;5058277;28;19976;-71
2022/11/24 12:36:13;;;;;;;;;;;20.30;99.90;;;;;;5059761;28;20380;-70
2022/11/24 12:38:45;;;;;;;;;;;20.20;99.90;;;;;;5058089;28;19924;-70
2022/11/24 12:41:24;;;;;;;;;;;20.20;99.90;;;;;;5059308;28;19956;-70
2022/11/24 12:43:51;;;;;;;;;;;20.20;99.90;;;;;;5060096;28;20009;-70
2022/11/24 12:46:36;;;;;;;;;;;20.30;99.90;;;;;;5059463;28;19965;-70
2022/11/24 12:49:06;;;;;;;;;;;20.40;99.90;;;;;;5059189;28;19916;-71
2022/11/24 12:51:34;;;;;;;;;;;20.40;99.90;;;;;;5058477;28;19908;-70
2022/11/24 12:54:02;;;;;;;;;;;20.30;99.90;;;;;;5059017;28;20002;-72
2022/11/24 12:56:42;;;;;;;;;;;20.30;99.90;;;;;;5058448;28;20459;-71
2022/11/24 12:59:09;;;;;;;;;;;20.30;99.90;;;;;;5060184;28;19916;-71
2022/11/24 13:01:39;;;;;;;;;;;20.30;99.90;;;;;;5057709;28;19919;-71
2022/11/24 13:04:11;;;;;;;;;;;20.20;99.90;;;;;;5059826;28;19916;-72
2022/11/24 13:06:38;;;;;;;;;;;20.20;99.90;;;;;;5057645;28;19955;-71
2022/11/24 13:09:09;;;;;;;;;;;20.20;99.90;;;;;;5059164;28;19909;-71
2022/11/24 13:11:42;;;;;;;;;;;20.10;99.90;;;;;;5057382;28;19912;-72
2022/11/24 13:14:12;;;;;;;;;;;20.10;99.90;;;;;;5059151;28;19916;-72
2022/11/24 13:16:49;;;;;;;;;;;20.10;99.90;;;;;;5057227;28;19909;-71
2022/11/24 13:19:25;;;;;;;;;;;20.00;99.90;;;;;;5059709;28;20184;-71
2022/11/24 13:22:08;;;;;;;;;;;20.00;99.90;;;;;;5059305;28;20276;-71
2022/11/24 13:24:36;;;;;;;;;;;20.10;99.90;;;;;;5056758;28;19962;-70
2022/11/24 13:27:15;;;;;;;;;;;20.10;99.90;;;;;;5058743;28;20415;-71
2022/11/24 13:29:43;;;;;;;;;;;20.00;99.90;;;;;;5056560;28;19940;-72
2022/11/24 13:32:10;;;;;;;;;;;19.90;99.90;;;;;;5059328;28;19912;-70
2022/11/24 13:34:41;;;;;;;;;;;20.10;99.90;;;;;;5057095;28;19913;-71
2022/11/24 13:37:26;;;;;;;;;;;20.10;99.90;;;;;;5058260;28;19919;-70
2022/11/24 13:39:56;;;;;;;;;;;20.10;99.90;;;;;;5058486;28;19909;-71
2022/11/24 13:42:27;;;;;;;;;;;20.10;99.90;;;;;;5058869;28;19916;-71
2022/11/24 13:45:04;;;;;;;;;;;20.10;99.90;;;;;;5057628;28;19909;-70
2022/11/24 13:47:44;;;;;;;;;;;20.10;99.90;;;;;;5057915;28;19920;-70
2022/11/24 13:50:21;;;;;;;;;;;20.00;99.90;;;;;;5058638;28;19916;-70
2022/11/24 13:52:49;;;;;;;;;;;19.90;99.90;;;;;;5056447;28;19970;-71
2022/11/24 13:55:18;;;;;;;;;;;19.90;99.90;;;;;;5058941;28;19909;-70
2022/11/24 13:57:44;;;;;;;;;;;19.80;99.90;;;;;;5056564;28;19908;-70
2022/11/24 14:00:25;;;;;;;;;;;19.80;99.90;;;;;;5059309;28;19908;-70
2022/11/24 14:02:54;;;;;;;;;;;19.80;99.90;;;;;;5057200;28;19938;-70
2022/11/24 14:05:23;;;;;;;;;;;19.80;99.90;;;;;;5057850;28;19924;-71
2022/11/24 14:07:51;;;;;;;;;;;19.70;99.90;;;;;;5056385;28;19917;-70
2022/11/24 14:10:21;;;;;;;;;;;19.80;99.90;;;;;;5058376;28;20261;-72
2022/11/24 14:13:07;;;;;;;;;;;19.70;99.90;;;;;;5056823;28;20819;-70
2022/11/24 14:15:35;;;;;;;;;;;19.60;99.90;;;;;;5057525;28;20052;-71
2022/11/24 14:18:12;;;;;;;;;;;19.60;99.90;;;;;;5058658;28;19917;-71
2022/11/24 14:20:39;;;;;;;;;;;19.50;99.90;;;;;;5055060;28;20257;-70
2022/11/24 14:23:08;;;;;;;;;;;19.50;99.90;;;;;;5058181;28;20345;-70
2022/11/24 14:25:35;;;;;;;;;;;19.40;99.90;;;;;;5058007;28;19912;-72
2022/11/24 14:28:15;;;;;;;;;;;19.40;99.90;;;;;;5057879;28;19917;-72
2022/11/24 14:30:42;;;;;;;;;;;19.60;99.90;;;;;;5056605;28;19932;-71
2022/11/24 14:33:11;;;;;;;;;;;19.60;99.90;;;;;;5058819;28;20000;-71